Time;durP1;ratioP1;P1;durP2;ratioP2;P2;SDS_P1;SDS_P2;PMS_P1;PMS_P2;Temp;Humidity;BMP_temperature;BMP_pressure;BME280_temperature;BME280_humidity;BME280_pressure;Samples;Min_cycle;Max_cycle;Signal;HPM_P1;HPM_P2
2023/05/17 00:01:19;;;;;;;5.00;1.30;;;10.20;99.90;;;;;;4993027;28;20053;-53
2023/05/17 00:03:44;;;;;;;5.95;2.08;;;10.20;99.90;;;;;;4993514;28;20113;-55
2023/05/17 00:06:10;;;;;;;3.65;1.50;;;10.30;99.90;;;;;;4993703;28;20403;-55
2023/05/17 00:08:35;;;;;;;6.32;1.67;;;10.30;99.90;;;;;;4993019;28;20137;-57
2023/05/17 00:11:01;;;;;;;5.15;1.60;;;10.30;99.90;;;;;;4993110;28;20029;-58
2023/05/17 00:13:26;;;;;;;6.50;1.70;;;10.30;99.90;;;;;;4993327;28;20430;-54
2023/05/17 00:15:52;;;;;;;3.92;1.85;;;10.40;99.90;;;;;;4993426;28;20038;-54
2023/05/17 00:18:17;;;;;;;3.50;1.70;;;10.40;99.90;;;;;;4992590;28;20113;-53
2023/05/17 00:20:43;;;;;;;9.68;1.75;;;10.40;99.90;;;;;;4993065;28;20093;-56
2023/05/17 00:23:08;;;;;;;6.65;1.77;;;10.50;99.90;;;;;;4991631;28;20479;-51
2023/05/17 00:25:34;;;;;;;4.25;1.65;;;10.50;99.90;;;;;;4992947;28;20026;-55
2023/05/17 00:27:59;;;;;;;4.13;1.80;;;10.50;99.90;;;;;;4992535;28;20025;-54
2023/05/17 00:30:26;;;;;;;3.70;1.80;;;10.40;99.90;;;;;;4991873;28;20048;-51
2023/05/17 00:32:51;;;;;;;3.28;1.95;;;10.40;99.90;;;;;;4992562;28;20172;-50
2023/05/17 00:35:17;;;;;;;4.55;1.70;;;10.30;99.90;;;;;;4992855;28;20037;-50
2023/05/17 00:37:46;;;;;;;9.07;2.38;;;10.30;99.90;;;;;;4992258;28;20031;-54
2023/05/17 00:40:13;;;;;;;3.83;2.05;;;10.30;99.90;;;;;;4992843;28;20113;-50
2023/05/17 00:42:38;;;;;;;11.38;2.58;;;10.20;99.90;;;;;;4992745;28;20034;-53
2023/05/17 00:45:04;;;;;;;4.85;1.95;;;10.10;99.90;;;;;;4992429;28;20035;-52
2023/05/17 00:47:30;;;;;;;2.33;1.95;;;10.10;99.90;;;;;;4992347;28;20515;-52
2023/05/17 00:49:55;;;;;;;6.35;2.70;;;10.10;99.90;;;;;;4992083;28;20026;-50
2023/05/17 00:52:21;;;;;;;4.88;2.42;;;10.00;99.90;;;;;;4992128;28;20019;-54
2023/05/17 00:54:46;;;;;;;5.15;2.20;;;10.00;99.90;;;;;;4992295;28;20026;-53
2023/05/17 00:57:13;;;;;;;11.43;3.63;;;10.00;99.90;;;;;;4992665;28;20037;-51
2023/05/17 00:59:39;;;;;;;6.35;2.47;;;10.00;99.90;;;;;;4992629;28;20160;-53
2023/05/17 01:02:05;;;;;;;8.27;2.30;;;10.00;99.90;;;;;;4992216;28;20497;-54
2023/05/17 01:04:31;;;;;;;3.65;2.47;;;10.00;99.90;;;;;;4991835;28;20034;-50
2023/05/17 01:06:57;;;;;;;7.28;3.25;;;9.90;99.90;;;;;;4992934;28;20029;-51
2023/05/17 01:09:23;;;;;;;15.73;3.10;;;9.90;99.90;;;;;;4991888;28;20034;-53
2023/05/17 01:12:03;;;;;;;10.77;2.70;;;9.90;99.90;;;;;;4990678;28;20498;-54
2023/05/17 01:15:07;;;;;;;7.25;2.53;;;9.90;99.90;;;;;;4992164;28;20030;-52
2023/05/17 01:17:34;;;;;;;4.80;2.38;;;9.80;99.90;;;;;;4991960;28;20486;-50
2023/05/17 01:20:06;;;;;;;3.35;2.33;;;9.80;99.90;;;;;;4991748;28;20027;-54
2023/05/17 01:23:10;;;;;;;5.10;2.17;;;9.80;99.90;;;;;;4992148;28;20034;-53
2023/05/17 01:26:09;;;;;;;5.32;2.75;;;9.70;99.90;;;;;;4992032;28;20045;-51
2023/05/17 01:28:37;;;;;;;4.13;3.10;;;9.70;99.90;;;;;;4992114;28;20022;-52
2023/05/17 01:31:04;;;;;;;7.70;2.55;;;9.70;99.90;;;;;;4990289;28;20029;-49
2023/05/17 01:33:30;;;;;;;7.97;2.88;;;9.70;99.90;;;;;;4991924;28;20022;-55
2023/05/17 01:35:56;;;;;;;4.00;2.55;;;9.60;99.90;;;;;;4992179;28;20050;-53
2023/05/17 01:38:21;;;;;;;4.18;2.42;;;9.60;99.90;;;;;;4991518;28;20077;-52
2023/05/17 01:40:57;;;;;;;7.65;2.67;;;9.60;99.90;;;;;;4990933;28;20027;-51
2023/05/17 01:43:45;;;;;;;5.93;2.75;;;9.50;99.90;;;;;;4992076;28;20038;-54
2023/05/17 01:46:30;;;;;;;6.80;3.20;;;9.50;99.90;;;;;;4991894;28;20453;-49
2023/05/17 01:49:19;;;;;;;8.32;3.85;;;9.50;99.90;;;;;;4990125;28;20114;-53
2023/05/17 01:52:01;;;;;;;5.00;2.55;;;9.40;99.90;;;;;;4990152;28;20030;-49
2023/05/17 01:54:47;;;;;;;3.55;2.58;;;9.40;99.90;;;;;;4991802;28;20442;-57
2023/05/17 01:57:14;;;;;;;9.95;2.90;;;9.40;99.90;;;;;;4995358;28;20034;-52
2023/05/17 01:59:41;;;;;;;7.80;2.72;;;9.30;99.90;;;;;;4995223;28;20521;-52
2023/05/17 02:02:08;;;;;;;8.43;3.40;;;9.30;99.90;;;;;;4995145;28;20383;-53
2023/05/17 02:04:35;;;;;;;3.33;2.85;;;9.30;99.90;;;;;;4995519;28;20054;-49
2023/05/17 02:07:01;;;;;;;6.18;2.78;;;9.30;99.90;;;;;;4995487;28;20110;-53
2023/05/17 02:09:27;;;;;;;6.10;3.17;;;9.30;99.90;;;;;;4995088;28;20018;-52
2023/05/17 02:11:52;;;;;;;4.20;3.78;;;9.20;99.90;;;;;;4995420;28;20101;-50
2023/05/17 02:14:18;;;;;;;4.30;2.95;;;9.20;99.90;;;;;;4994107;28;20038;-58
2023/05/17 02:16:43;;;;;;;6.50;2.97;;;9.20;99.90;;;;;;4995095;28;20105;-53
2023/05/17 02:19:11;;;;;;;4.05;3.28;;;9.20;99.90;;;;;;4994997;28;20092;-50
2023/05/17 02:21:37;;;;;;;5.95;2.88;;;9.20;99.90;;;;;;4995089;28;20105;-51
2023/05/17 02:24:03;;;;;;;11.10;3.30;;;9.10;99.90;;;;;;4994170;28;20129;-49
2023/05/17 02:26:28;;;;;;;10.40;3.70;;;9.10;99.90;;;;;;4995074;28;20026;-54
2023/05/17 02:28:54;;;;;;;9.32;4.47;;;9.10;99.90;;;;;;4994616;28;20033;-50
2023/05/17 02:31:19;;;;;;;9.32;3.78;;;9.00;99.90;;;;;;4994571;28;20489;-50
2023/05/17 02:33:45;;;;;;;9.85;3.45;;;9.00;99.90;;;;;;4994847;28;20038;-54
2023/05/17 02:36:11;;;;;;;6.53;3.03;;;9.00;99.90;;;;;;4994839;28;20038;-52
2023/05/17 02:38:36;;;;;;;8.45;2.90;;;8.90;99.90;;;;;;4994504;28;20497;-51
2023/05/17 02:41:17;;;;;;;5.30;3.25;;;8.90;99.90;;;;;;4994640;28;20090;-54
2023/05/17 02:43:42;;;;;;;6.45;3.17;;;8.90;99.90;;;;;;4991181;28;20053;-53
2023/05/17 02:46:08;;;;;;;5.60;3.45;;;8.80;99.90;;;;;;4995773;28;20090;-52
2023/05/17 02:48:33;;;;;;;4.85;3.00;;;8.80;99.90;;;;;;4994211;28;20212;-50
2023/05/17 02:50:59;;;;;;;4.78;3.03;;;8.80;99.90;;;;;;4993656;28;20030;-51
2023/05/17 02:53:24;;;;;;;9.13;3.92;;;8.80;99.90;;;;;;4994351;28;20015;-53
2023/05/17 02:55:50;;;;;;;10.48;3.78;;;8.70;99.90;;;;;;4993484;28;20023;-50
2023/05/17 02:58:15;;;;;;;5.60;3.67;;;8.70;99.90;;;;;;4994043;28;20026;-53
2023/05/17 03:00:45;;;;;;;8.20;3.03;;;8.70;99.90;;;;;;4994650;28;20042;-49
2023/05/17 03:03:10;;;;;;;7.07;3.53;;;8.70;99.90;;;;;;4994180;28;20026;-49
2023/05/17 03:05:36;;;;;;;10.77;5.13;;;8.70;99.90;;;;;;4994349;28;20026;-50
2023/05/17 03:08:01;;;;;;;8.20;3.15;;;8.70;99.90;;;;;;4993395;28;20041;-49
2023/05/17 03:10:27;;;;;;;8.15;2.97;;;8.70;99.90;;;;;;4994441;28;20437;-52
2023/05/17 03:12:52;;;;;;;8.73;3.20;;;8.60;99.90;;;;;;4994098;28;20026;-48
2023/05/17 03:15:18;;;;;;;9.13;4.07;;;8.60;99.90;;;;;;4994223;28;20033;-51
2023/05/17 03:17:43;;;;;;;7.85;4.90;;;8.60;99.90;;;;;;4993662;28;20061;-50
2023/05/17 03:20:09;;;;;;;4.80;2.97;;;8.60;99.90;;;;;;4994222;28;20041;-53
2023/05/17 03:22:35;;;;;;;10.10;4.22;;;8.60;99.90;;;;;;4993714;28;20057;-48
2023/05/17 03:25:00;;;;;;;7.50;3.05;;;8.60;99.90;;;;;;4992050;28;20077;-50
2023/05/17 03:27:26;;;;;;;8.70;3.95;;;8.60;99.90;;;;;;4993846;28;20038;-49
2023/05/17 03:29:51;;;;;;;10.65;4.07;;;8.60;99.90;;;;;;4993577;28;20027;-51
2023/05/17 03:32:16;;;;;;;6.22;2.90;;;8.60;99.90;;;;;;4993635;28;20034;-52
2023/05/17 03:34:42;;;;;;;9.90;3.20;;;8.60;99.90;;;;;;4993586;28;20126;-50
2023/05/17 03:37:07;;;;;;;5.72;2.90;;;8.60;99.90;;;;;;4993730;28;20523;-53
2023/05/17 03:39:33;;;;;;;5.38;3.40;;;8.60;99.90;;;;;;4993411;28;20122;-57
2023/05/17 03:41:58;;;;;;;11.68;3.75;;;8.60;99.90;;;;;;4993453;28;20037;-49
2023/05/17 03:44:24;;;;;;;7.13;3.45;;;8.50;99.90;;;;;;4993647;28;20037;-50
2023/05/17 03:46:50;;;;;;;5.75;4.10;;;8.50;99.90;;;;;;4993662;28;20022;-52
2023/05/17 03:49:15;;;;;;;11.50;4.00;;;8.40;99.90;;;;;;4993073;28;20022;-55
2023/05/17 03:51:41;;;;;;;8.70;4.25;;;8.30;99.90;;;;;;4993380;28;20106;-51
2023/05/17 03:54:06;;;;;;;6.68;3.00;;;8.30;99.90;;;;;;4993399;28;20019;-53
2023/05/17 03:56:32;;;;;;;5.57;3.08;;;8.30;99.90;;;;;;4993411;28;20022;-54
2023/05/17 03:58:57;;;;;;;7.70;3.42;;;8.30;99.90;;;;;;4991734;28;20031;-52
2023/05/17 04:01:23;;;;;;;8.10;3.20;;;8.30;99.90;;;;;;4992079;28;20065;-51
2023/05/17 04:03:48;;;;;;;12.30;3.30;;;8.40;99.90;;;;;;4993209;28;20036;-56
2023/05/17 04:06:14;;;;;;;10.98;3.75;;;8.50;99.90;;;;;;4993233;28;20061;-54
2023/05/17 04:08:40;;;;;;;6.95;3.75;;;8.50;99.90;;;;;;4992879;28;20570;-51
2023/05/17 04:11:11;;;;;;;5.75;3.30;;;8.50;99.90;;;;;;4992811;28;20113;-50
2023/05/17 04:14:30;;;;;;;7.63;3.15;;;8.60;99.90;;;;;;4992892;28;20018;-53
2023/05/17 04:16:55;;;;;;;6.72;3.78;;;8.70;99.90;;;;;;4989310;28;20498;-49
2023/05/17 04:19:21;;;;;;;4.82;3.22;;;8.80;99.90;;;;;;4991933;28;20026;-53
2023/05/17 04:21:46;;;;;;;5.57;3.25;;;8.80;99.90;;;;;;4992849;28;20022;-54
2023/05/17 04:24:12;;;;;;;10.80;3.85;;;8.80;99.90;;;;;;4991817;28;20110;-50
2023/05/17 04:26:37;;;;;;;6.65;3.13;;;8.90;99.90;;;;;;4992879;28;20030;-53
2023/05/17 04:29:03;;;;;;;8.32;3.20;;;9.00;99.90;;;;;;4992387;28;20464;-55
2023/05/17 04:31:30;;;;;;;10.20;4.28;;;9.10;99.90;;;;;;4992640;28;20034;-49
2023/05/17 04:33:56;;;;;;;7.60;3.67;;;9.20;99.90;;;;;;4992495;28;20029;-52
2023/05/17 04:36:21;;;;;;;6.32;3.40;;;9.30;99.90;;;;;;4992385;28;20031;-53
2023/05/17 04:38:47;;;;;;;9.48;4.20;;;9.30;99.90;;;;;;4992362;28;20037;-51
2023/05/17 04:41:13;;;;;;;7.80;3.40;;;9.50;99.90;;;;;;4992332;28;20113;-52
2023/05/17 04:43:38;;;;;;;8.95;3.25;;;9.60;99.90;;;;;;4992639;28;20041;-52
2023/05/17 04:46:04;;;;;;;8.95;3.72;;;9.70;99.90;;;;;;4992517;28;20030;-52
2023/05/17 04:48:31;;;;;;;5.35;3.30;;;10.20;99.90;;;;;;4991849;28;20026;-52
2023/05/17 04:51:01;;;;;;;8.10;3.80;;;10.90;99.90;;;;;;4992529;28;20078;-54
2023/05/17 04:53:26;;;;;;;5.15;2.60;;;11.60;99.90;;;;;;4992141;28;20053;-49
2023/05/17 04:55:51;;;;;;;11.43;3.30;;;12.40;99.90;;;;;;4992308;28;20505;-54
2023/05/17 04:58:17;;;;;;;4.22;2.95;;;13.20;99.90;;;;;;4991943;28;20080;-55
2023/05/17 05:00:44;;;;;;;6.88;3.47;;;14.00;99.90;;;;;;4992512;28;20065;-51
2023/05/17 05:03:09;;;;;;;7.20;3.25;;;14.90;99.90;;;;;;4991815;28;20466;-51
2023/05/17 05:05:35;;;;;;;7.45;3.08;;;15.70;99.90;;;;;;4992232;28;20180;-50
2023/05/17 05:08:01;;;;;;;4.15;2.92;;;16.20;98.80;;;;;;4991669;28;20037;-54
2023/05/17 05:10:29;;;;;;;8.07;2.90;;;16.60;97.40;;;;;;4991040;28;20411;-50
2023/05/17 05:12:55;;;;;;;5.00;2.45;;;16.90;97.70;;;;;;4991866;28;20022;-54
2023/05/17 05:15:20;;;;;;;4.25;2.67;;;17.00;96.60;;;;;;4992225;28;20033;-55
2023/05/17 05:17:46;;;;;;;7.35;2.80;;;17.40;95.80;;;;;;5003874;23;20595;-43
2023/05/17 05:20:12;;;;;;;4.90;3.00;;;17.90;95.40;;;;;;4992098;28;20021;-46
2023/05/17 05:22:37;;;;;;;8.18;2.47;;;18.30;94.70;;;;;;4980353;28;20018;-46
2023/05/17 05:25:03;;;;;;;5.82;2.97;;;18.80;93.50;;;;;;4970274;28;20023;-44
2023/05/17 05:27:29;;;;;;;5.93;2.92;;;19.40;93.50;;;;;;4971693;28;20038;-49
2023/05/17 05:29:55;;;;;;;10.90;2.85;;;19.80;92.20;;;;;;4975455;28;20031;-43
2023/05/17 05:32:20;;;;;;;9.05;3.00;;;20.20;90.70;;;;;;4978827;28;20105;-43
2023/05/17 05:34:46;;;;;;;6.82;4.00;;;20.20;90.60;;;;;;4978977;28;20030;-42
2023/05/17 05:37:11;;;;;;;7.43;2.90;;;20.60;89.70;;;;;;4979158;28;20440;-45
2023/05/17 05:39:37;;;;;;;4.97;2.72;;;20.90;88.80;;;;;;4977290;28;20023;-42
2023/05/17 05:42:03;;;;;;;5.70;2.45;;;21.00;88.80;;;;;;4978939;28;20062;-42
2023/05/17 05:44:29;;;;;;;11.15;2.85;;;20.90;88.50;;;;;;4977847;28;20106;-46
2023/05/17 05:46:54;;;;;;;7.28;2.72;;;21.30;87.40;;;;;;4978928;28;20019;-44
2023/05/17 05:49:20;;;;;;;6.20;3.00;;;21.40;86.00;;;;;;4978472;28;20039;-50
2023/05/17 05:51:45;;;;;;;4.78;2.60;;;21.80;84.70;;;;;;4978629;28;20037;-48
2023/05/17 05:54:12;;;;;;;4.80;2.63;;;21.80;84.00;;;;;;4978617;28;20033;-43
2023/05/17 05:56:38;;;;;;;4.68;2.60;;;22.10;83.30;;;;;;4978625;28;20031;-49
2023/05/17 05:59:03;;;;;;;5.72;2.85;;;22.30;82.70;;;;;;4978846;28;20023;-45
2023/05/17 06:01:29;;;;;;;5.72;2.63;;;22.60;81.90;;;;;;4978784;28;20038;-45
2023/05/17 06:03:54;;;;;;;3.92;2.83;;;22.60;81.80;;;;;;4978858;28;20514;-43
2023/05/17 06:06:20;;;;;;;8.07;3.33;;;22.00;80.90;;;;;;4978827;28;20560;-47
2023/05/17 06:08:46;;;;;;;4.88;3.03;;;21.30;82.40;;;;;;4979223;28;20105;-52
2023/05/17 06:11:14;;;;;;;7.93;3.17;;;21.50;81.80;;;;;;4978474;28;20057;-45
2023/05/17 06:13:40;;;;;;;7.43;3.35;;;21.20;82.70;;;;;;4978576;28;20391;-43
2023/05/17 06:16:05;;;;;;;5.85;2.88;;;20.70;83.00;;;;;;4978616;28;20035;-50
2023/05/17 06:18:32;;;;;;;5.97;2.95;;;20.40;83.60;;;;;;4977119;28;20046;-50
2023/05/17 06:20:58;;;;;;;6.18;3.33;;;20.60;83.30;;;;;;4978460;28;20037;-45
2023/05/17 06:23:23;;;;;;;8.95;3.08;;;20.50;83.60;;;;;;4977207;28;20030;-47
2023/05/17 06:25:49;;;;;;;8.10;3.00;;;20.50;84.40;;;;;;4978526;28;20034;-42
2023/05/17 06:28:15;;;;;;;5.10;2.45;;;19.90;85.20;;;;;;4978174;28;20050;-48
2023/05/17 06:30:40;;;;;;;7.18;3.00;;;20.10;86.40;;;;;;4978683;28;20526;-45
2023/05/17 06:33:06;;;;;;;6.22;2.92;;;20.50;83.60;;;;;;4978363;28;20027;-49
2023/05/17 06:35:31;;;;;;;4.70;2.40;;;20.80;82.80;;;;;;4978804;28;20023;-47
2023/05/17 06:37:57;;;;;;;6.88;3.00;;;21.20;83.60;;;;;;4978065;28;20035;-45
2023/05/17 06:40:22;;;;;;;5.15;3.33;;;21.00;82.10;;;;;;4978502;28;20073;-48
2023/05/17 06:42:48;;;;;;;4.50;2.47;;;20.60;82.90;;;;;;4974496;28;20395;-48
2023/05/17 06:45:13;;;;;;;5.95;2.95;;;20.50;83.20;;;;;;4975480;28;20035;-45
2023/05/17 06:47:39;;;;;;;7.07;3.15;;;19.90;83.10;;;;;;4974946;28;20031;-42
2023/05/17 06:50:06;;;;;;;6.45;3.25;;;19.40;86.60;;;;;;4974439;28;20035;-47
2023/05/17 06:52:31;;;;;;;4.80;2.90;;;18.80;87.20;;;;;;4975270;28;20019;-45
2023/05/17 06:54:57;;;;;;;6.57;2.90;;;17.90;89.20;;;;;;4976130;28;20161;-47
2023/05/17 06:57:23;;;;;;;6.47;3.08;;;16.90;90.80;;;;;;4975812;28;20030;-49
2023/05/17 06:59:48;;;;;;;7.72;3.30;;;15.80;92.40;;;;;;4974780;28;20041;-48
2023/05/17 07:02:14;;;;;;;7.28;3.72;;;14.80;94.20;;;;;;4974672;28;20034;-46
2023/05/17 07:04:40;;;;;;;7.40;3.15;;;14.40;95.60;;;;;;4975008;28;20049;-47
2023/05/17 07:07:05;;;;;;;8.55;3.67;;;14.00;96.70;;;;;;4974977;28;20050;-46
2023/05/17 07:09:31;;;;;;;7.60;3.42;;;13.80;97.80;;;;;;4974727;28;20030;-52
2023/05/17 07:11:56;;;;;;;11.80;3.72;;;13.70;98.90;;;;;;4973445;28;20031;-44
2023/05/17 07:14:22;;;;;;;6.32;3.42;;;13.60;98.20;;;;;;4974870;28;20054;-47
2023/05/17 07:16:48;;;;;;;9.82;3.20;;;13.50;99.10;;;;;;4974707;28;20487;-49
2023/05/17 07:19:13;;;;;;;13.85;4.57;;;13.40;98.90;;;;;;4974475;28;20467;-49
2023/05/17 07:21:40;;;;;;;9.05;3.17;;;13.30;98.70;;;;;;4974416;28;20047;-49
2023/05/17 07:24:05;;;;;;;4.75;2.72;;;13.20;99.20;;;;;;4972811;28;20514;-47
2023/05/17 07:26:31;;;;;;;8.63;3.05;;;13.20;99.50;;;;;;4975420;28;20078;-44
2023/05/17 07:28:56;;;;;;;9.00;2.92;;;13.60;99.00;;;;;;4974173;28;20514;-46
2023/05/17 07:31:22;;;;;;;5.95;3.20;;;13.90;98.80;;;;;;4974306;28;20102;-49
2023/05/17 07:33:47;;;;;;;7.88;3.40;;;14.20;98.20;;;;;;4974708;28;20371;-46
2023/05/17 07:36:13;;;;;;;8.07;3.08;;;14.90;97.20;;;;;;4974764;28;20046;-48
2023/05/17 07:38:38;;;;;;;7.07;3.40;;;16.10;95.20;;;;;;4974095;28;20113;-46
2023/05/17 07:41:08;;;;;;;7.10;2.83;;;16.50;93.80;;;;;;4974247;28;20085;-48
2023/05/17 07:43:35;;;;;;;7.97;3.22;;;16.70;92.70;;;;;;4974511;28;20081;-45
2023/05/17 07:46:00;;;;;;;7.15;3.58;;;16.70;93.00;;;;;;4974302;28;20027;-50
2023/05/17 07:48:26;;;;;;;9.55;3.10;;;16.60;93.70;;;;;;4978068;28;20406;-44
2023/05/17 07:50:51;;;;;;;5.85;3.10;;;16.30;94.00;;;;;;4991948;28;20073;-45
2023/05/17 07:53:17;;;;;;;6.13;3.20;;;15.90;94.80;;;;;;4992535;28;20109;-45
2023/05/17 07:55:42;;;;;;;11.57;3.95;;;16.30;93.80;;;;;;4993894;28;20497;-45
2023/05/17 07:58:11;;;;;;;6.18;3.17;;;17.60;92.80;;;;;;4988174;28;20027;-47
2023/05/17 08:00:37;;;;;;;7.32;3.42;;;18.60;91.10;;;;;;4993325;28;20049;-50
2023/05/17 08:03:03;;;;;;;9.68;3.40;;;18.80;90.10;;;;;;4990937;28;20030;-58
2023/05/17 08:05:29;;;;;;;4.57;3.15;;;18.20;90.20;;;;;;4992841;28;20236;-55
2023/05/17 08:07:54;;;;;;;5.18;2.80;;;17.40;90.80;;;;;;4993802;28;20105;-44
2023/05/17 08:10:20;;;;;;;10.40;3.63;;;16.70;91.70;;;;;;5009457;28;20029;-42
2023/05/17 08:12:46;;;;;;;6.30;3.58;;;15.90;93.00;;;;;;4993071;28;20026;-42
2023/05/17 08:15:11;;;;;;;11.43;4.00;;;15.30;94.10;;;;;;4993273;28;20379;-44
2023/05/17 08:17:36;;;;;;;6.55;3.70;;;14.90;95.20;;;;;;4992984;28;20042;-44
2023/05/17 08:20:04;;;;;;;8.80;3.60;;;14.20;95.50;;;;;;4993048;28;20030;-42
2023/05/17 08:22:30;;;;;;;6.38;3.00;;;14.10;96.10;;;;;;4992810;28;20023;-42
2023/05/17 08:24:55;;;;;;;9.73;4.32;;;14.00;96.00;;;;;;4994051;28;20089;-46
2023/05/17 08:27:21;;;;;;;7.32;3.00;;;13.80;96.40;;;;;;4993508;28;20027;-44
2023/05/17 08:29:46;;;;;;;9.50;3.35;;;13.60;96.50;;;;;;4993267;28;20031;-42
2023/05/17 08:32:12;;;;;;;9.07;3.28;;;13.50;96.70;;;;;;4992731;28;20034;-44
2023/05/17 08:34:37;;;;;;;8.77;3.42;;;13.50;97.10;;;;;;4991940;28;20030;-43
2023/05/17 08:37:03;;;;;;;7.15;3.65;;;13.40;97.40;;;;;;4992704;28;20406;-45
2023/05/17 08:39:29;;;;;;;6.28;3.58;;;13.50;97.30;;;;;;4992412;28;20081;-46
2023/05/17 08:41:58;;;;;;;7.68;3.42;;;13.70;97.50;;;;;;4992394;28;20454;-44
2023/05/17 08:44:26;;;;;;;5.80;2.72;;;13.60;97.00;;;;;;4992694;28;20486;-42
2023/05/17 08:46:55;;;;;;;5.55;2.65;;;13.70;97.00;;;;;;4992078;28;20034;-44
2023/05/17 08:49:24;;;;;;;6.63;3.13;;;13.70;96.00;;;;;;4990589;28;20434;-38
2023/05/17 08:51:52;;;;;;;5.93;3.00;;;13.70;96.20;;;;;;4991712;28;20042;-48
2023/05/17 08:54:17;;;;;;;7.32;3.88;;;13.70;96.70;;;;;;4991664;28;20026;-44
2023/05/17 08:56:43;;;;;;;6.45;2.35;;;13.70;95.60;;;;;;4992605;28;20029;-48
2023/05/17 08:59:10;;;;;;;8.32;2.58;;;13.70;95.60;;;;;;4992076;28;20035;-47
2023/05/17 09:01:38;;;;;;;8.88;3.05;;;13.50;94.80;;;;;;4992076;28;20486;-44
2023/05/17 09:04:05;;;;;;;7.38;2.30;;;13.40;94.40;;;;;;4991858;28;20027;-42
2023/05/17 09:06:32;;;;;;;7.53;2.60;;;13.40;95.30;;;;;;4992597;28;20456;-40
2023/05/17 09:09:00;;;;;;;4.45;2.10;;;13.50;94.90;;;;;;4992536;28;20030;-46
2023/05/17 09:11:28;;;;;;;5.10;2.45;;;13.60;94.20;;;;;;4991001;28;20030;-46
2023/05/17 09:13:58;;;;;;;6.13;2.70;;;13.50;94.20;;;;;;4992489;28;20030;-43
2023/05/17 09:16:25;;;;;;;40.47;23.63;;;13.50;95.30;;;;;;4992594;28;20033;-43
2023/05/17 09:18:58;;;;;;;6.68;3.63;;;13.50;94.60;;;;;;4992492;28;20421;-43
2023/05/17 09:21:25;;;;;;;4.32;2.25;;;13.40;94.30;;;;;;4992341;28;20038;-46
2023/05/17 09:23:52;;;;;;;5.28;2.72;;;13.50;95.10;;;;;;4992196;28;20070;-43
2023/05/17 09:26:19;;;;;;;6.65;2.75;;;13.50;94.50;;;;;;4992392;28;20041;-45
2023/05/17 09:28:44;;;;;;;7.57;2.50;;;13.50;94.70;;;;;;4991508;28;20053;-49
2023/05/17 09:31:13;;;;;;;5.55;2.05;;;13.70;94.00;;;;;;4991897;28;20023;-45
2023/05/17 09:33:48;;;;;;;6.28;2.88;;;13.90;93.80;;;;;;4992650;28;20014;-41
2023/05/17 09:36:16;;;;;;;7.72;2.33;;;14.10;93.80;;;;;;4992653;28;20026;-43
2023/05/17 09:38:42;;;;;;;6.90;2.42;;;14.30;93.60;;;;;;4991699;28;20518;-43
2023/05/17 09:41:08;;;;;;;7.38;2.80;;;14.40;93.30;;;;;;4991667;28;20553;-43
2023/05/17 09:43:33;;;;;;;7.82;2.65;;;14.40;93.50;;;;;;4989460;28;20023;-42
2023/05/17 09:45:59;;;;;;;8.70;2.17;;;14.50;93.70;;;;;;4990743;28;20221;-47
2023/05/17 09:48:26;;;;;;;6.95;2.40;;;14.50;93.20;;;;;;4990012;28;20434;-44
2023/05/17 09:50:52;;;;;;;9.32;2.95;;;14.60;92.60;;;;;;4987463;28;20015;-42
2023/05/17 09:53:32;;;;;;;4.93;2.08;;;14.50;92.10;;;;;;4972129;28;20039;-43
2023/05/17 09:56:03;;;;;;;4.90;2.42;;;14.50;92.40;;;;;;5007058;28;20022;-45
2023/05/17 09:58:31;;;;;;;9.65;2.45;;;14.40;92.40;;;;;;5003053;28;20042;-42
2023/05/17 10:01:05;;;;;;;5.75;2.60;;;14.10;92.40;;;;;;4991240;28;20026;-41
2023/05/17 10:03:32;;;;;;;9.35;2.83;;;13.80;92.90;;;;;;4991436;28;20038;-39
2023/05/17 10:06:11;;;;;;;14.63;3.60;;;13.70;92.90;;;;;;4991698;28;20026;-43
2023/05/17 10:08:42;;;;;;;5.32;2.33;;;13.60;93.10;;;;;;4991204;28;20572;-45
2023/05/17 10:11:08;;;;;;;4.57;2.80;;;13.60;93.40;;;;;;4990147;28;20399;-43
2023/05/17 10:13:45;;;;;;;5.10;2.40;;;13.80;94.30;;;;;;4991798;28;20018;-44
2023/05/17 10:16:11;;;;;;;7.03;2.38;;;14.00;94.10;;;;;;4990213;28;20015;-42
2023/05/17 10:18:39;;;;;;;8.70;2.70;;;14.20;93.10;;;;;;4999697;28;20037;-43
2023/05/17 10:21:07;;;;;;;6.05;2.63;;;14.30;93.10;;;;;;5015129;28;20112;-42
2023/05/17 10:23:33;;;;;;;8.73;3.55;;;14.50;93.20;;;;;;4997389;28;20109;-45
2023/05/17 10:25:59;;;;;;;5.15;2.67;;;14.50;92.60;;;;;;4989560;28;20159;-46
2023/05/17 10:28:27;;;;;;;6.60;2.63;;;14.70;92.20;;;;;;4991038;28;20492;-45
2023/05/17 10:30:53;;;;;;;5.60;2.65;;;15.00;93.00;;;;;;4993538;28;20514;-46
2023/05/17 10:33:20;;;;;;;9.00;3.20;;;15.30;92.60;;;;;;4993424;28;20036;-48
2023/05/17 10:35:48;;;;;;;6.70;2.80;;;15.50;91.20;;;;;;4993776;28;20026;-46
2023/05/17 10:38:14;;;;;;;5.90;2.33;;;15.60;91.50;;;;;;4994459;28;20109;-43
2023/05/17 10:40:41;;;;;;;6.30;4.10;;;15.70;92.00;;;;;;5014327;28;20116;-46
2023/05/17 10:43:09;;;;;;;8.63;3.38;;;15.70;91.30;;;;;;5014202;28;20401;-47
2023/05/17 10:45:35;;;;;;;24.92;11.23;;;15.50;91.30;;;;;;5013842;28;20474;-45
2023/05/17 10:48:04;;;;;;;8.27;3.05;;;15.60;90.90;;;;;;5001724;28;20061;-49
2023/05/17 10:50:31;;;;;;;4.20;2.45;;;15.70;91.60;;;;;;4994683;28;20018;-44
2023/05/17 10:52:58;;;;;;;8.82;2.90;;;15.50;91.60;;;;;;4992635;28;20482;-45
2023/05/17 10:55:25;;;;;;;7.93;2.17;;;15.60;91.50;;;;;;4995017;28;20018;-45
2023/05/17 10:58:18;;;;;;;10.50;2.42;;;15.40;91.90;;;;;;4994148;28;20229;-43
2023/05/17 11:00:48;;;;;;;9.13;2.92;;;15.20;91.80;;;;;;4972187;28;20402;-46
2023/05/17 11:03:24;;;;;;;6.07;2.70;;;15.20;91.60;;;;;;4992926;28;20077;-45
2023/05/17 11:06:09;;;;;;;9.93;3.40;;;15.20;91.70;;;;;;4994384;28;20022;-46
2023/05/17 11:08:34;;;;;;;8.15;2.88;;;15.00;92.10;;;;;;4994021;28;20038;-41
2023/05/17 11:11:16;;;;;;;4.35;2.25;;;14.90;92.60;;;;;;4993470;28;20034;-48
2023/05/17 11:13:54;;;;;;;9.50;3.88;;;14.90;92.80;;;;;;4993986;28;20487;-49
2023/05/17 11:16:22;;;;;;;8.70;2.60;;;15.10;92.60;;;;;;4994243;28;20101;-47
2023/05/17 11:18:50;;;;;;;5.72;2.50;;;15.30;92.80;;;;;;4994571;28;20041;-42
2023/05/17 11:21:15;;;;;;;5.80;2.60;;;15.60;92.80;;;;;;4974467;28;20051;-43
2023/05/17 11:23:45;;;;;;;6.40;2.33;;;15.70;91.30;;;;;;4973622;28;20499;-47
2023/05/17 11:26:21;;;;;;;4.13;2.33;;;15.70;90.80;;;;;;4984371;28;20441;-46
2023/05/17 11:28:47;;;;;;;4.65;2.40;;;16.00;91.00;;;;;;4993311;28;20033;-43
2023/05/17 11:31:13;;;;;;;8.13;3.08;;;16.10;90.10;;;;;;4994226;28;20026;-47
2023/05/17 11:33:44;;;;;;;8.15;2.90;;;16.10;90.10;;;;;;4993932;28;20029;-52
2023/05/17 11:36:28;;;;;;;6.18;3.17;;;16.10;90.40;;;;;;5003602;28;20015;-45
2023/05/17 11:39:14;;;;;;;5.68;2.40;;;15.90;90.40;;;;;;4991096;28;20122;-42
2023/05/17 11:41:48;;;;;;;6.55;2.45;;;15.60;90.60;;;;;;4993616;28;20409;-43
2023/05/17 11:44:16;;;;;;;7.05;2.80;;;15.60;91.30;;;;;;4993745;28;20482;-44
2023/05/17 11:46:42;;;;;;;6.82;2.72;;;15.50;91.80;;;;;;4993717;28;20041;-44
2023/05/17 11:49:08;;;;;;;6.22;3.13;;;15.60;91.30;;;;;;4993432;28;20069;-45
2023/05/17 11:51:34;;;;;;;12.65;3.00;;;15.60;90.70;;;;;;4993649;28;20026;-42
2023/05/17 11:54:02;;;;;;;14.30;2.88;;;15.50;91.20;;;;;;4993600;28;20364;-43
2023/05/17 11:56:33;;;;;;;6.57;2.90;;;15.50;91.90;;;;;;4993832;28;20513;-42
2023/05/17 11:59:00;;;;;;;7.72;2.83;;;15.70;91.60;;;;;;4992717;28;20049;-43
2023/05/17 12:01:25;;;;;;;5.60;2.88;;;15.80;91.00;;;;;;4993844;28;20491;-43
2023/05/17 12:04:00;;;;;;;6.00;3.08;;;15.90;91.10;;;;;;4994260;28;20037;-42
2023/05/17 12:06:27;;;;;;;6.75;3.20;;;15.80;90.80;;;;;;4994640;28;20037;-41
2023/05/17 12:08:53;;;;;;;4.72;3.00;;;15.50;90.70;;;;;;4993850;28;20027;-41
2023/05/17 12:11:19;;;;;;;9.73;2.78;;;15.30;91.10;;;;;;4993480;28;20394;-43
2023/05/17 12:13:47;;;;;;;8.90;2.88;;;15.20;91.50;;;;;;4993677;28;20023;-43
2023/05/17 12:16:14;;;;;;;7.55;3.05;;;15.20;91.70;;;;;;4993310;28;20090;-43
2023/05/17 12:18:41;;;;;;;5.95;2.33;;;15.30;91.30;;;;;;4992949;28;20046;-44
2023/05/17 12:21:08;;;;;;;9.05;2.90;;;15.30;90.90;;;;;;4993122;28;20026;-43
2023/05/17 12:23:38;;;;;;;4.72;2.50;;;15.30;90.60;;;;;;4993150;28;20096;-45
2023/05/17 12:26:05;;;;;;;6.72;2.10;;;15.20;90.60;;;;;;4993274;28;20026;-44
2023/05/17 12:28:31;;;;;;;6.07;2.95;;;15.20;90.90;;;;;;4992545;28;20442;-43
2023/05/17 12:30:59;;;;;;;11.38;2.95;;;15.20;91.30;;;;;;4991931;28;20026;-46
2023/05/17 12:33:28;;;;;;;8.82;3.40;;;15.30;91.70;;;;;;4992903;28;20026;-44
2023/05/17 12:35:53;;;;;;;7.82;3.22;;;15.40;91.10;;;;;;4992966;28;20018;-43
2023/05/17 12:38:19;;;;;;;9.25;2.75;;;15.40;91.00;;;;;;4992327;28;20030;-44
2023/05/17 12:40:45;;;;;;;4.53;2.58;;;15.50;90.40;;;;;;4991956;28;20080;-44
2023/05/17 12:43:10;;;;;;;7.68;3.17;;;15.40;90.50;;;;;;4992485;28;20030;-45
2023/05/17 12:45:36;;;;;;;8.18;2.40;;;15.50;90.00;;;;;;4992486;28;20494;-42
2023/05/17 12:48:01;;;;;;;7.90;2.90;;;15.60;90.40;;;;;;4992158;28;20035;-42
2023/05/17 12:50:29;;;;;;;9.20;2.63;;;15.70;90.70;;;;;;4991960;28;20522;-42